Shinsei Maru — JD2188 — position and weather

sailwx.info

Track history (hours):
 
Tides and Currents Weather Stations Pressure Air Temp Water Temp Dewpoint Dewpoint Depression Visibility Wind Speed Wind Dir Waves Ship Positions

Shinsei Maru

Last reported at 2015-Jun-29 13:18 UTC. Time now 2015-Jul-02 08:04 UTC.
Position N 34°35' E 134°52'.

Length 104 m; draft 6.5 m.

Type: Tanker. MMSI: 431301775.

Date/timePositionNaut miles runAvg speedWind from/ knotsBaromVisibWave heightAir tempDewpointWater temp
2015-Jun-29 13:18N 34°35' E 134°52'1012.8
2015-Jun-29 12:33N 34°36' E 135°04'1313.3
2015-Jun-29 11:33N 34°23' E 135°02'1414.3
2015-Jun-29 10:33N 34°09' E 134°60'23111.5
2015-Jun-28 14:33N 35°01' E 139°33'1413.9
2015-Jun-28 13:33N 35°11' E 139°45'1212.3
2015-Jun-28 12:33N 35°23' E 139°42'1313.1
2015-Jun-28 11:33N 35°31' E 139°55'6 5.6
2015-Jun-28 10:30N 35°31' E 140°03'0 0.0
2015-Jun-28 09:30N 35°31' E 140°02'0 0.0
2015-Jun-28 08:30N 35°31' E 140°02'0 0.0
2015-Jun-28 07:30N 35°31' E 140°03'0 0.0
2015-Jun-28 06:24N 35°31' E 140°03'0 0.0
2015-Jun-28 05:30N 35°31' E 140°03'0 0.0
2015-Jun-28 04:30N 35°31' E 140°02'0 0.0
2015-Jun-28 03:30N 35°31' E 140°02'0 0.0
2015-Jun-28 02:30N 35°31' E 140°02'0 0.0
2015-Jun-28 01:30N 35°31' E 140°03'0 0.0
2015-Jun-28 00:30N 35°31' E 140°02'0 0.0
2015-Jun-27 23:30N 35°31' E 140°02'3 3.6
2015-Jun-27 22:33N 35°32' E 139°59'0 0.0
2015-Jun-27 21:31N 35°32' E 139°59'0 0.0
2015-Jun-27 20:31N 35°32' E 139°59'0 0.0
2015-Jun-27 19:31N 35°32' E 139°59'0 0.0
2015-Jun-27 18:25N 35°32' E 139°59'0 0.0
2015-Jun-27 17:31N 35°32' E 139°59'0 0.0
2015-Jun-27 16:19N 35°32' E 139°59'0 0.0
2015-Jun-27 15:31N 35°32' E 139°59'0 0.0
2015-Jun-27 14:31N 35°32' E 139°59'0 0.0
2015-Jun-27 13:31N 35°32' E 139°59'0 0.0
2015-Jun-27 12:25N 35°32' E 139°59'0 0.0
2015-Jun-27 11:31N 35°32' E 139°59'0 0.0
2015-Jun-27 10:31N 35°32' E 139°59'0 0.0
2015-Jun-27 09:25N 35°32' E 139°59'0 0.0
2015-Jun-27 08:19N 35°32' E 139°59'2 2.7
2015-Jun-27 07:33N 35°32' E 140°01'2 1.3
2015-Jun-27 06:14N 35°32' E 140°03'0 0.0
2015-Jun-27 05:26N 35°32' E 140°03'0 0.0
2015-Jun-27 04:32N 35°32' E 140°03'0 0.0
2015-Jun-27 03:32N 35°32' E 140°03'0 0.0
2015-Jun-27 02:32N 35°32' E 140°03'0 0.0
2015-Jun-27 01:32N 35°32' E 140°03'0 0.0
2015-Jun-27 00:26N 35°32' E 140°03'0 0.0
2015-Jun-26 23:26N 35°32' E 140°03'6 6.8
2015-Jun-26 22:33N 35°30' E 139°56'1211.8
2015-Jun-26 21:33N 35°22' E 139°45'1211.7
2015-Jun-26 20:33N 35°11' E 139°47'1312.8
2015-Jun-26 19:33N 34°58' E 139°43'1311.9
2015-Jun-26 18:29N 34°52' E 139°56'1313.6
2015-Jun-26 17:32N 34°58' E 140°10'1712.9
2015-Jun-26 16:13N 35°07' E 140°28'812.4
2015-Jun-26 15:34N 35°14' E 140°34'  
2015-Jun-21 18:14N 35°33' E 140°53'1013.5
2015-Jun-21 17:29N 35°25' E 140°45'5811.8
2015-Jun-21 12:33N 34°55' E 139°45'1212.4
2015-Jun-21 11:33N 35°07' E 139°45'1212.2
2015-Jun-21 10:33N 35°19' E 139°43'1111.2
2015-Jun-21 09:33N 35°29' E 139°50'1010.2
2015-Jun-21 08:33N 35°31' E 140°02'0 0.0
2015-Jun-21 07:27N 35°31' E 140°02'0 0.0
2015-Jun-21 06:33N 35°31' E 140°02'0 0.0
2015-Jun-21 05:33N 35°31' E 140°02'0 0.0
2015-Jun-21 04:27N 35°31' E 140°02'0 0.0
2015-Jun-21 03:27N 35°31' E 140°02'0 0.0
2015-Jun-21 02:33N 35°31' E 140°02'9 9.3
2015-Jun-21 01:34N 35°30' E 139°51'4 4.2
2015-Jun-21 00:32N 35°31' E 139°46'0 0.0
2015-Jun-20 23:32N 35°31' E 139°46'0 0.0
2015-Jun-20 22:32N 35°31' E 139°46'5 5.4
2015-Jun-20 21:33N 35°26' E 139°44'2 2.2
2015-Jun-20 20:31N 35°24' E 139°45'0 0.0
2015-Jun-20 19:31N 35°24' E 139°45'0 0.0
2015-Jun-20 18:31N 35°24' E 139°45'0 0.0
2015-Jun-20 17:31N 35°24' E 139°45'0 0.0
2015-Jun-20 16:31N 35°24' E 139°45'0 0.0
2015-Jun-20 15:31N 35°24' E 139°45'0 0.0
2015-Jun-20 14:31N 35°24' E 139°45'0 0.0
2015-Jun-20 13:31N 35°24' E 139°45'0 0.0
2015-Jun-20 12:31N 35°24' E 139°45'0 0.0
2015-Jun-20 11:31N 35°24' E 139°45'0 0.0
2015-Jun-20 10:31N 35°24' E 139°45'0 0.0
2015-Jun-20 09:31N 35°24' E 139°45'0 0.0
2015-Jun-20 08:31N 35°24' E 139°45'0 0.0
2015-Jun-20 07:31N 35°24' E 139°45'0 0.0
2015-Jun-20 06:31N 35°24' E 139°45'1 1.3
2015-Jun-20 05:34N 35°23' E 139°45'1211.9
2015-Jun-20 04:33N 35°11' E 139°46'1413.1
2015-Jun-20 03:32N 34°58' E 139°44'1211.7
2015-Jun-20 02:30N 34°52' E 139°57'1313.5
2015-Jun-20 01:33N 34°58' E 140°10'1713.0
2015-Jun-20 00:16N 35°08' E 140°27'912.2
2015-Jun-19 23:33N 35°14' E 140°34'  
Track history (hours):
 
Tides and Currents Weather Stations Pressure Air Temp Water Temp Dewpoint Dewpoint Depression Visibility Wind Speed Wind Dir Waves Ship Positions

Shinsei Maru

Last reported at 2015-Jun-29 13:18 UTC. Time now 2015-Jul-02 08:04 UTC.
Position N 34°35' E 134°52'.

Length 104 m; draft 6.5 m.

Type: Tanker. MMSI: 431301775.

Date/timePositionNaut miles runAvg speedWind from/ knotsBaromVisibWave heightAir tempDewpointWater temp
2015-Jun-29 13:18N 34°35' E 134°52'1012.8
2015-Jun-29 12:33N 34°36' E 135°04'1313.3
2015-Jun-29 11:33N 34°23' E 135°02'1414.3
2015-Jun-29 10:33N 34°09' E 134°60'23111.5
2015-Jun-28 14:33N 35°01' E 139°33'1413.9
2015-Jun-28 13:33N 35°11' E 139°45'1212.3
2015-Jun-28 12:33N 35°23' E 139°42'1313.1
2015-Jun-28 11:33N 35°31' E 139°55'6 5.6
2015-Jun-28 10:30N 35°31' E 140°03'0 0.0
2015-Jun-28 09:30N 35°31' E 140°02'0 0.0
2015-Jun-28 08:30N 35°31' E 140°02'0 0.0
2015-Jun-28 07:30N 35°31' E 140°03'0 0.0
2015-Jun-28 06:24N 35°31' E 140°03'0 0.0
2015-Jun-28 05:30N 35°31' E 140°03'0 0.0
2015-Jun-28 04:30N 35°31' E 140°02'0 0.0
2015-Jun-28 03:30N 35°31' E 140°02'0 0.0
2015-Jun-28 02:30N 35°31' E 140°02'0 0.0
2015-Jun-28 01:30N 35°31' E 140°03'0 0.0
2015-Jun-28 00:30N 35°31' E 140°02'0 0.0
2015-Jun-27 23:30N 35°31' E 140°02'3 3.6
2015-Jun-27 22:33N 35°32' E 139°59'0 0.0
2015-Jun-27 21:31N 35°32' E 139°59'0 0.0
2015-Jun-27 20:31N 35°32' E 139°59'0 0.0
2015-Jun-27 19:31N 35°32' E 139°59'0 0.0
2015-Jun-27 18:25N 35°32' E 139°59'0 0.0
2015-Jun-27 17:31N 35°32' E 139°59'0 0.0
2015-Jun-27 16:19N 35°32' E 139°59'0 0.0
2015-Jun-27 15:31N 35°32' E 139°59'0 0.0
2015-Jun-27 14:31N 35°32' E 139°59'0 0.0
2015-Jun-27 13:31N 35°32' E 139°59'0 0.0
2015-Jun-27 12:25N 35°32' E 139°59'0 0.0
2015-Jun-27 11:31N 35°32' E 139°59'0 0.0
2015-Jun-27 10:31N 35°32' E 139°59'0 0.0
2015-Jun-27 09:25N 35°32' E 139°59'0 0.0
2015-Jun-27 08:19N 35°32' E 139°59'2 2.7
2015-Jun-27 07:33N 35°32' E 140°01'2 1.3
2015-Jun-27 06:14N 35°32' E 140°03'0 0.0
2015-Jun-27 05:26N 35°32' E 140°03'0 0.0
2015-Jun-27 04:32N 35°32' E 140°03'0 0.0
2015-Jun-27 03:32N 35°32' E 140°03'0 0.0
2015-Jun-27 02:32N 35°32' E 140°03'0 0.0
2015-Jun-27 01:32N 35°32' E 140°03'0 0.0
2015-Jun-27 00:26N 35°32' E 140°03'0 0.0
2015-Jun-26 23:26N 35°32' E 140°03'6 6.8
2015-Jun-26 22:33N 35°30' E 139°56'1211.8
2015-Jun-26 21:33N 35°22' E 139°45'1211.7
2015-Jun-26 20:33N 35°11' E 139°47'1312.8
2015-Jun-26 19:33N 34°58' E 139°43'1311.9
2015-Jun-26 18:29N 34°52' E 139°56'1313.6
2015-Jun-26 17:32N 34°58' E 140°10'1712.9
2015-Jun-26 16:13N 35°07' E 140°28'812.4
2015-Jun-26 15:34N 35°14' E 140°34'  
2015-Jun-21 18:14N 35°33' E 140°53'1013.5
2015-Jun-21 17:29N 35°25' E 140°45'5811.8
2015-Jun-21 12:33N 34°55' E 139°45'1212.4
2015-Jun-21 11:33N 35°07' E 139°45'1212.2
2015-Jun-21 10:33N 35°19' E 139°43'1111.2
2015-Jun-21 09:33N 35°29' E 139°50'1010.2
2015-Jun-21 08:33N 35°31' E 140°02'0 0.0
2015-Jun-21 07:27N 35°31' E 140°02'0 0.0
2015-Jun-21 06:33N 35°31' E 140°02'0 0.0
2015-Jun-21 05:33N 35°31' E 140°02'0 0.0
2015-Jun-21 04:27N 35°31' E 140°02'0 0.0
2015-Jun-21 03:27N 35°31' E 140°02'0 0.0
2015-Jun-21 02:33N 35°31' E 140°02'9 9.3
2015-Jun-21 01:34N 35°30' E 139°51'4 4.2
2015-Jun-21 00:32N 35°31' E 139°46'0 0.0
2015-Jun-20 23:32N 35°31' E 139°46'0 0.0
2015-Jun-20 22:32N 35°31' E 139°46'5 5.4
2015-Jun-20 21:33N 35°26' E 139°44'2 2.2
2015-Jun-20 20:31N 35°24' E 139°45'0 0.0
2015-Jun-20 19:31N 35°24' E 139°45'0 0.0
2015-Jun-20 18:31N 35°24' E 139°45'0 0.0
2015-Jun-20 17:31N 35°24' E 139°45'0 0.0
2015-Jun-20 16:31N 35°24' E 139°45'0 0.0
2015-Jun-20 15:31N 35°24' E 139°45'0 0.0
2015-Jun-20 14:31N 35°24' E 139°45'0 0.0
2015-Jun-20 13:31N 35°24' E 139°45'0 0.0
2015-Jun-20 12:31N 35°24' E 139°45'0 0.0
2015-Jun-20 11:31N 35°24' E 139°45'0 0.0
2015-Jun-20 10:31N 35°24' E 139°45'0 0.0
2015-Jun-20 09:31N 35°24' E 139°45'0 0.0
2015-Jun-20 08:31N 35°24' E 139°45'0 0.0
2015-Jun-20 07:31N 35°24' E 139°45'0 0.0
2015-Jun-20 06:31N 35°24' E 139°45'1 1.3
2015-Jun-20 05:34N 35°23' E 139°45'1211.9
2015-Jun-20 04:33N 35°11' E 139°46'1413.1
2015-Jun-20 03:32N 34°58' E 139°44'1211.7
2015-Jun-20 02:30N 34°52' E 139°57'1313.5
2015-Jun-20 01:33N 34°58' E 140°10'1713.0
2015-Jun-20 00:16N 35°08' E 140°27'912.2
2015-Jun-19 23:33N 35°14' E 140°34'  

Dump ship's entire track history